createdAt,value
2022-11-18T00:00:26.176Z,42.47
2022-11-18T00:02:52.814Z,43.04
2022-11-18T00:05:19.505Z,42.71
2022-11-18T00:07:46.121Z,43.09
2022-11-18T00:10:12.772Z,43.11
2022-11-18T00:12:39.452Z,42.94
2022-11-18T00:15:06.385Z,43.31
2022-11-18T00:17:33.026Z,43.09
2022-11-18T00:19:59.677Z,44.38
2022-11-18T00:22:29.918Z,44.60
2022-11-18T00:24:56.774Z,44.43
2022-11-18T00:27:23.399Z,44.80
2022-11-18T00:29:50.041Z,44.39
2022-11-18T00:32:16.683Z,44.07
2022-11-18T00:34:43.330Z,44.21
2022-11-18T00:37:09.966Z,44.90
2022-11-18T00:39:36.583Z,44.25
2022-11-18T00:42:03.218Z,44.91
2022-11-18T00:44:29.856Z,44.37
2022-11-18T00:46:56.494Z,44.70
2022-11-18T00:49:23.283Z,44.46
2022-11-18T00:51:49.953Z,44.41
2022-11-18T00:54:16.596Z,44.57
2022-11-18T00:56:43.232Z,44.88
2022-11-18T00:59:09.862Z,45.03
2022-11-18T01:01:36.536Z,44.35
2022-11-18T01:04:03.172Z,44.80
2022-11-18T01:06:29.884Z,44.35
2022-11-18T01:08:56.513Z,44.63
2022-11-18T01:11:23.170Z,45.19
2022-11-18T01:13:50.699Z,44.78
2022-11-18T01:16:24.116Z,44.39
2022-11-18T01:18:50.796Z,44.28
2022-11-18T01:21:17.458Z,44.81
2022-11-18T01:23:44.518Z,43.99
2022-11-18T01:26:12.476Z,44.72
2022-11-18T01:28:39.334Z,44.33
2022-11-18T01:31:06.527Z,44.06
2022-11-18T01:33:33.168Z,44.26
2022-11-18T01:35:59.901Z,44.39
2022-11-18T01:38:26.528Z,44.42
2022-11-18T01:40:53.341Z,44.26
2022-11-18T01:43:20.479Z,44.32
2022-11-18T01:45:48.228Z,44.81
2022-11-18T01:48:21.931Z,44.28
2022-11-18T01:50:52.523Z,44.25
2022-11-18T01:53:21.988Z,44.46
2022-11-18T01:55:49.018Z,44.45
2022-11-18T01:58:22.453Z,44.34
2022-11-18T02:00:49.082Z,44.66
2022-11-18T02:03:15.715Z,44.63
2022-11-18T02:05:42.581Z,44.57
2022-11-18T02:08:09.227Z,44.25
2022-11-18T02:10:35.886Z,44.58
2022-11-18T02:13:02.524Z,43.90
2022-11-18T02:15:35.935Z,44.26
2022-11-18T02:18:22.731Z,44.57
2022-11-18T02:20:49.344Z,44.47
2022-11-18T02:23:43.827Z,44.10
2022-11-18T02:26:52.873Z,44.68
2022-11-18T02:29:21.445Z,44.20
2022-11-18T02:31:59.292Z,44.41
2022-11-18T02:34:52.868Z,44.21
2022-11-18T02:37:32.072Z,44.71
2022-11-18T02:40:08.422Z,44.31
2022-11-18T02:42:35.335Z,44.52
2022-11-18T02:45:05.680Z,44.92
2022-11-18T02:47:32.324Z,44.72
2022-11-18T02:50:01.188Z,44.50
2022-11-18T02:52:27.817Z,44.01
2022-11-18T02:54:54.482Z,44.88
2022-11-18T02:57:21.102Z,44.35
2022-11-18T02:59:47.830Z,44.75
2022-11-18T03:02:16.242Z,44.02
2022-11-18T03:04:43.263Z,44.32
2022-11-18T03:07:42.322Z,44.12
2022-11-18T03:10:08.950Z,44.43
2022-11-18T03:12:50.820Z,44.78
2022-11-18T03:15:45.439Z,44.64
2022-11-18T03:18:50.381Z,44.09
2022-11-18T03:21:24.018Z,43.94
2022-11-18T03:24:03.941Z,44.35
2022-11-18T03:26:36.206Z,44.08
2022-11-18T03:29:06.186Z,43.91
2022-11-18T03:31:36.436Z,44.24
2022-11-18T03:34:11.420Z,43.83
2022-11-18T03:36:39.492Z,43.76
2022-11-18T03:39:06.611Z,43.93
2022-11-18T03:41:35.450Z,43.68
2022-11-18T03:44:09.921Z,43.93
2022-11-18T03:46:44.423Z,44.03
2022-11-18T03:49:13.550Z,43.82
2022-11-18T03:51:46.478Z,43.95
2022-11-18T03:54:16.170Z,43.85
2022-11-18T03:56:46.391Z,43.98
2022-11-18T03:59:21.924Z,44.19
2022-11-18T04:02:19.212Z,44.34
2022-11-18T04:04:46.823Z,44.21
2022-11-18T04:07:19.426Z,44.41
2022-11-18T04:09:48.319Z,44.21
2022-11-18T04:12:16.050Z,44.13
2022-11-18T04:14:43.754Z,44.25
2022-11-18T04:17:17.769Z,44.34
2022-11-18T04:19:44.393Z,44.22
2022-11-18T04:22:11.042Z,44.47
2022-11-18T04:24:37.728Z,44.26
2022-11-18T04:27:04.403Z,44.37
2022-11-18T04:29:31.516Z,44.12
2022-11-18T04:31:58.784Z,43.74
2022-11-18T04:34:25.476Z,44.19
2022-11-18T04:36:52.194Z,43.83
2022-11-18T04:39:19.165Z,43.58
2022-11-18T04:41:45.897Z,43.72
2022-11-18T04:44:12.504Z,43.84
2022-11-18T04:46:42.593Z,43.95
2022-11-18T04:49:10.018Z,43.67
2022-11-18T04:51:36.681Z,43.83
2022-11-18T04:54:03.582Z,44.35
2022-11-18T04:56:30.195Z,44.11
2022-11-18T04:58:58.324Z,44.36
2022-11-18T05:01:25.005Z,44.29
2022-11-18T05:03:51.711Z,44.04
2022-11-18T05:06:18.338Z,44.60
2022-11-18T05:08:44.985Z,44.38
2022-11-18T05:11:11.645Z,44.36
2022-11-18T05:13:38.266Z,44.23
2022-11-18T05:16:05.065Z,43.92
2022-11-18T05:18:31.686Z,44.03
2022-11-18T05:20:58.307Z,44.06
2022-11-18T05:23:24.928Z,43.93
2022-11-18T05:25:51.544Z,43.60
2022-11-18T05:28:18.177Z,43.96
2022-11-18T05:30:44.828Z,44.16
2022-11-18T05:33:11.518Z,44.35
2022-11-18T05:35:38.160Z,45.00
2022-11-18T05:38:04.771Z,44.75
2022-11-18T05:40:31.468Z,44.37
2022-11-18T05:42:58.103Z,44.44
2022-11-18T05:45:24.745Z,44.38
2022-11-18T05:47:51.380Z,44.36
2022-11-18T05:50:21.268Z,44.62
2022-11-18T05:52:48.164Z,44.24
2022-11-18T05:55:14.793Z,44.20
2022-11-18T05:57:41.436Z,44.13
2022-11-18T06:00:08.610Z,44.01
2022-11-18T06:02:35.583Z,44.07
2022-11-18T06:05:02.256Z,44.58
2022-11-18T06:07:37.815Z,44.92
2022-11-18T06:10:06.073Z,44.76
2022-11-18T06:12:36.232Z,45.31
2022-11-18T06:15:05.820Z,45.38
2022-11-18T06:17:39.210Z,45.64
2022-11-18T06:20:06.199Z,44.30
2022-11-18T06:22:34.054Z,44.39
2022-11-18T06:25:00.861Z,44.64
2022-11-18T06:27:28.073Z,45.37
2022-11-18T06:29:54.723Z,45.14
2022-11-18T06:32:21.388Z,45.33
2022-11-18T06:34:48.019Z,44.89
2022-11-18T06:37:15.283Z,44.90
2022-11-18T06:42:08.354Z,45.19
2022-11-18T06:44:35.031Z,46.61
2022-11-18T06:47:01.666Z,45.85
2022-11-18T06:49:28.290Z,46.48
2022-11-18T06:51:54.977Z,47.46
2022-11-18T06:54:21.636Z,45.36
2022-11-18T06:56:48.279Z,40.30
2022-11-18T06:59:15.135Z,40.70
2022-11-18T07:01:42.072Z,42.18
2022-11-18T07:04:08.795Z,43.05
2022-11-18T07:06:35.582Z,42.09
2022-11-18T07:09:03.598Z,43.33
2022-11-18T07:11:30.211Z,43.54
2022-11-18T07:13:56.833Z,44.20
2022-11-18T07:16:24.743Z,43.94
2022-11-18T07:18:51.885Z,44.09
2022-11-18T07:21:22.291Z,43.47
2022-11-18T07:23:49.031Z,44.04
2022-11-18T07:26:15.859Z,43.99
2022-11-18T07:28:42.544Z,43.88
2022-11-18T07:31:14.267Z,43.94
2022-11-18T07:33:41.151Z,43.52
2022-11-18T07:36:08.754Z,43.25
2022-11-18T07:38:35.412Z,43.66
2022-11-18T07:41:11.562Z,43.24
2022-11-18T07:43:38.233Z,43.57
2022-11-18T07:46:18.912Z,43.70
2022-11-18T07:48:46.070Z,43.67
2022-11-18T07:51:13.160Z,44.10
2022-11-18T07:53:39.869Z,43.76
2022-11-18T07:56:07.488Z,43.57
2022-11-18T07:58:34.270Z,44.47
2022-11-18T08:01:16.952Z,43.71
2022-11-18T08:03:43.790Z,43.80
2022-11-18T08:06:11.075Z,44.35
2022-11-18T08:08:37.713Z,43.86
2022-11-18T08:11:06.071Z,44.61
2022-11-18T08:13:32.712Z,43.85
2022-11-18T08:15:59.353Z,44.08
2022-11-18T08:18:25.984Z,44.75
2022-11-18T08:20:52.607Z,44.51
2022-11-18T08:23:19.232Z,44.31
2022-11-18T08:25:45.985Z,43.78
2022-11-18T08:28:13.078Z,43.71
2022-11-18T08:30:39.738Z,43.83
2022-11-18T08:33:06.410Z,43.27
2022-11-18T08:35:33.050Z,43.67
2022-11-18T08:37:59.840Z,43.66
2022-11-18T08:40:26.559Z,43.77
2022-11-18T08:42:53.191Z,43.49
2022-11-18T08:45:19.870Z,43.63
2022-11-18T08:47:46.509Z,42.95
2022-11-18T08:50:13.156Z,43.11
2022-11-18T08:52:39.783Z,43.16
2022-11-18T08:55:06.468Z,43.45
2022-11-18T08:57:33.103Z,43.54
2022-11-18T08:59:59.796Z,43.04
2022-11-18T09:02:26.510Z,42.74
2022-11-18T09:04:53.144Z,42.53
2022-11-18T09:07:20.317Z,42.85
2022-11-18T09:09:47.155Z,42.69
2022-11-18T09:12:13.828Z,42.82
2022-11-18T09:15:14.937Z,42.53
2022-11-18T09:17:30.942Z,42.53
2022-11-18T09:19:57.556Z,43.03
2022-11-18T09:22:24.186Z,42.92
2022-11-18T09:24:50.825Z,43.53
2022-11-18T09:27:18.085Z,44.02
2022-11-18T09:29:45.337Z,43.16
2022-11-18T09:32:12.022Z,43.46
2022-11-18T09:34:38.653Z,43.30
2022-11-18T09:37:05.531Z,43.84
2022-11-18T09:39:34.602Z,43.85
2022-11-18T09:42:25.204Z,43.63
2022-11-18T09:45:22.324Z,43.45
2022-11-18T09:47:50.755Z,43.02
2022-11-18T09:50:47.866Z,43.85
2022-11-18T09:53:18.284Z,43.18
2022-11-18T09:55:44.923Z,43.56
2022-11-18T09:58:33.973Z,43.47
2022-11-18T10:01:01.090Z,43.30
2022-11-18T10:03:31.895Z,43.29
2022-11-18T10:06:04.128Z,43.46
2022-11-18T10:08:36.760Z,43.49
2022-11-18T10:11:20.971Z,43.47
2022-11-18T10:14:21.012Z,43.33
2022-11-18T10:16:47.561Z,43.52
2022-11-18T10:19:35.936Z,42.75
2022-11-18T10:22:24.676Z,43.00
2022-11-18T10:24:55.783Z,43.31
2022-11-18T10:27:27.103Z,43.52
2022-11-18T10:29:57.477Z,39.40
2022-11-18T10:32:24.222Z,38.01
2022-11-18T10:34:55.796Z,36.22
2022-11-18T10:37:45.857Z,36.45
2022-11-18T10:40:26.334Z,36.51
2022-11-18T10:42:52.966Z,36.59
2022-11-18T10:45:22.481Z,36.37
2022-11-18T10:48:17.402Z,37.00
2022-11-18T10:50:53.495Z,36.59
2022-11-18T10:53:34.208Z,36.26
2022-11-18T10:56:08.486Z,36.46
2022-11-18T10:58:36.454Z,38.51
2022-11-18T11:01:14.432Z,39.59
2022-11-18T11:03:41.762Z,40.10
2022-11-18T11:06:23.516Z,41.10
2022-11-18T11:08:51.463Z,40.34
2022-11-18T11:11:35.176Z,40.25
2022-11-18T11:14:06.797Z,40.63
2022-11-18T11:16:36.560Z,41.88
2022-11-18T11:19:03.201Z,42.51
2022-11-18T11:21:29.820Z,42.82
2022-11-18T11:23:56.444Z,42.98
2022-11-18T11:29:46.021Z,40.40
2022-11-18T11:32:33.303Z,36.62
2022-11-18T11:35:17.917Z,35.62
2022-11-18T11:40:41.084Z,35.19
2022-11-18T11:43:19.668Z,36.18
2022-11-18T11:46:03.781Z,33.82
2022-11-18T11:48:48.622Z,33.56
2022-11-18T11:51:24.924Z,34.65
2022-11-18T11:54:13.573Z,35.70
2022-11-18T11:56:53.326Z,36.01
2022-11-18T11:59:48.693Z,36.09
2022-11-18T12:02:40.295Z,36.66
2022-11-18T12:05:28.638Z,36.21
2022-11-18T12:07:59.707Z,36.66
2022-11-18T12:10:29.253Z,37.06
2022-11-18T12:13:37.570Z,37.24
2022-11-18T12:16:19.565Z,38.63
2022-11-18T12:18:55.028Z,37.65
2022-11-18T12:21:46.616Z,37.54
2022-11-18T12:24:25.041Z,38.10
2022-11-18T12:26:51.679Z,38.43
2022-11-18T12:29:18.435Z,38.06
2022-11-18T12:31:46.566Z,38.40
2022-11-18T12:34:25.096Z,38.47
2022-11-18T12:36:52.197Z,39.01
2022-11-18T12:39:24.401Z,38.95
2022-11-18T12:41:50.854Z,38.84
2022-11-18T12:44:22.429Z,38.84
2022-11-18T12:46:49.381Z,39.54
2022-11-18T12:49:21.985Z,39.01
2022-11-18T12:51:58.774Z,39.30
2022-11-18T12:54:39.378Z,39.27
2022-11-18T12:57:21.936Z,40.48
2022-11-18T12:59:48.681Z,41.18
2022-11-18T13:02:28.063Z,39.98
2022-11-18T13:05:10.539Z,40.23
2022-11-18T13:07:44.274Z,39.94
2022-11-18T13:10:21.900Z,39.76
2022-11-18T13:12:48.533Z,39.21
2022-11-18T13:15:15.137Z,39.51
2022-11-18T13:17:41.933Z,39.44
2022-11-18T13:20:37.008Z,39.42
2022-11-18T13:23:09.421Z,39.43
2022-11-18T13:25:36.029Z,39.75
2022-11-18T13:28:20.968Z,40.46
2022-11-18T13:30:54.273Z,39.80
2022-11-18T13:33:20.889Z,39.96
2022-11-18T13:35:47.511Z,39.83
2022-11-18T13:38:27.304Z,40.13
2022-11-18T13:40:54.518Z,39.37
2022-11-18T13:43:25.907Z,39.97
2022-11-18T13:45:52.525Z,40.21
2022-11-18T13:48:19.151Z,40.43
2022-11-18T13:50:49.697Z,39.98
2022-11-18T13:53:48.674Z,39.75
2022-11-18T13:56:20.252Z,39.68
2022-11-18T14:01:37.454Z,40.05
2022-11-18T14:04:04.859Z,39.55
2022-11-18T14:06:32.226Z,39.46
2022-11-18T14:09:11.043Z,39.73
2022-11-18T14:11:39.083Z,39.74
2022-11-18T14:14:05.712Z,40.25
2022-11-18T14:16:36.835Z,39.74
2022-11-18T14:19:03.490Z,40.09
2022-11-18T14:21:36.553Z,39.44
2022-11-18T14:24:03.210Z,39.97
2022-11-18T14:26:31.389Z,39.53
2022-11-18T14:28:59.299Z,39.69
2022-11-18T14:31:27.073Z,40.06
2022-11-18T14:34:20.468Z,39.64
2022-11-18T14:36:47.074Z,39.99
2022-11-18T14:39:27.480Z,40.06
2022-11-18T14:41:54.400Z,39.97
2022-11-18T14:44:21.757Z,40.04
2022-11-18T14:46:56.949Z,39.74
2022-11-18T14:49:24.400Z,39.74
2022-11-18T14:51:51.716Z,40.16
2022-11-18T14:54:25.483Z,40.06
2022-11-18T14:56:53.220Z,40.03
2022-11-18T14:59:20.276Z,39.86
2022-11-18T15:01:47.318Z,39.90
2022-11-18T15:04:14.202Z,39.90
2022-11-18T15:06:40.809Z,40.16
2022-11-18T15:09:07.550Z,39.87
2022-11-18T15:11:34.649Z,39.90
2022-11-18T15:14:01.544Z,39.28
2022-11-18T15:16:29.300Z,39.90
2022-11-18T15:19:00.413Z,39.79
2022-11-18T15:21:27.232Z,39.54
2022-11-18T15:23:53.854Z,39.74
2022-11-18T15:26:28.099Z,40.30
2022-11-18T15:28:55.582Z,54.03
2022-11-18T15:31:22.553Z,41.16
2022-11-18T15:33:49.198Z,40.57
2022-11-18T15:36:22.793Z,40.13
2022-11-18T15:38:49.529Z,40.94
2022-11-18T15:41:20.496Z,40.77
2022-11-18T15:43:47.588Z,40.27
2022-11-18T15:46:17.835Z,40.75
2022-11-18T15:48:44.572Z,40.73
2022-11-18T15:51:12.266Z,40.36
2022-11-18T15:53:39.156Z,40.63
2022-11-18T15:56:24.023Z,41.04
2022-11-18T15:59:04.815Z,41.07
2022-11-18T16:01:35.498Z,40.48
2022-11-18T16:04:02.698Z,40.83
2022-11-18T16:06:29.319Z,40.18
2022-11-18T16:08:59.624Z,40.99
2022-11-18T16:11:26.753Z,40.81
2022-11-18T16:13:53.388Z,41.10
2022-11-18T16:16:20.827Z,40.90
2022-11-18T16:18:47.450Z,41.01
2022-11-18T16:21:14.125Z,40.70
2022-11-18T16:23:40.730Z,40.75
2022-11-18T16:26:07.345Z,40.83
2022-11-18T16:28:33.950Z,41.17
2022-11-18T16:31:00.584Z,41.07
2022-11-18T16:33:27.199Z,41.38
2022-11-18T16:35:53.808Z,40.77
2022-11-18T16:38:20.472Z,40.54
2022-11-18T16:40:47.078Z,40.87
2022-11-18T16:43:13.678Z,40.82
2022-11-18T16:45:40.284Z,40.87
2022-11-18T16:48:06.909Z,40.93
2022-11-18T16:50:33.505Z,40.67
2022-11-18T16:53:00.123Z,40.40
2022-11-18T16:55:26.729Z,40.58
2022-11-18T16:57:53.335Z,40.68
2022-11-18T17:00:19.997Z,40.68
2022-11-18T17:02:46.779Z,40.80
2022-11-18T17:05:13.458Z,40.50
2022-11-18T17:07:40.108Z,40.35
2022-11-18T17:10:07.120Z,40.86
2022-11-18T17:12:33.734Z,40.38
2022-11-18T17:15:00.358Z,40.54
2022-11-18T17:17:26.969Z,40.20
2022-11-18T17:19:53.564Z,40.26
2022-11-18T17:22:20.175Z,40.38
2022-11-18T17:24:46.784Z,40.33
2022-11-18T17:27:13.503Z,40.72
2022-11-18T17:29:40.117Z,40.64
2022-11-18T17:32:06.725Z,40.17
2022-11-18T17:34:33.335Z,40.11
2022-11-18T17:37:06.139Z,40.30
2022-11-18T17:39:33.265Z,40.60
2022-11-18T17:41:59.864Z,40.09
2022-11-18T17:44:26.852Z,40.18
2022-11-18T17:46:53.476Z,40.65
2022-11-18T17:49:20.112Z,40.12
2022-11-18T17:51:46.727Z,40.08
2022-11-18T17:54:13.407Z,40.25
2022-11-18T17:56:40.038Z,40.34
2022-11-18T17:59:06.641Z,40.33
2022-11-18T18:01:33.314Z,40.06
2022-11-18T18:03:59.958Z,40.39
2022-11-18T18:06:26.571Z,40.13
2022-11-18T18:08:56.808Z,40.64
2022-11-18T18:11:23.517Z,40.50
2022-11-18T18:13:50.134Z,40.07
2022-11-18T18:16:16.963Z,40.30
2022-11-18T18:18:43.586Z,40.65
2022-11-18T18:21:12.941Z,40.06
2022-11-18T18:23:39.836Z,40.53
2022-11-18T18:26:07.290Z,39.91
2022-11-18T18:28:33.914Z,40.55
2022-11-18T18:31:01.187Z,40.46
2022-11-18T18:33:27.793Z,40.29
2022-11-18T18:35:58.201Z,40.42
2022-11-18T18:38:25.034Z,40.02
2022-11-18T18:40:51.661Z,40.10
2022-11-18T18:43:18.286Z,39.96
2022-11-18T18:45:44.929Z,40.43
2022-11-18T18:48:11.525Z,40.50
2022-11-18T18:50:38.151Z,40.40
2022-11-18T18:53:04.780Z,40.17
2022-11-18T18:55:31.450Z,40.22
2022-11-18T18:57:58.045Z,39.88
2022-11-18T19:00:24.674Z,40.10
2022-11-18T19:02:51.293Z,40.54
2022-11-18T19:05:17.917Z,40.11
2022-11-18T19:07:44.634Z,40.09
2022-11-18T19:10:11.351Z,40.24
2022-11-18T19:12:37.963Z,40.44
2022-11-18T19:15:05.062Z,40.07
2022-11-18T19:17:31.793Z,39.93
2022-11-18T19:19:58.464Z,40.25
2022-11-18T19:22:25.080Z,39.89
2022-11-18T19:24:52.249Z,40.30
2022-11-18T19:27:19.280Z,40.28
2022-11-18T19:29:45.904Z,39.89
2022-11-18T19:32:12.517Z,40.09
2022-11-18T19:34:39.148Z,40.55
2022-11-18T19:37:05.757Z,39.80
2022-11-18T19:39:32.380Z,40.10
2022-11-18T19:41:59.001Z,40.01
2022-11-18T19:44:25.636Z,40.45
2022-11-18T19:46:52.246Z,39.91
2022-11-18T19:49:19.028Z,39.84
2022-11-18T19:51:45.830Z,39.87
2022-11-18T19:54:12.462Z,40.04
2022-11-18T19:56:39.112Z,40.03
2022-11-18T19:59:05.726Z,39.96
2022-11-18T20:01:32.429Z,40.01
2022-11-18T20:03:59.734Z,39.88
2022-11-18T20:06:26.719Z,39.73
2022-11-18T20:08:53.354Z,39.89
2022-11-18T20:11:20.292Z,40.48
2022-11-18T20:13:46.950Z,40.24
2022-11-18T20:16:17.489Z,40.34
2022-11-18T20:18:44.269Z,40.18
2022-11-18T20:21:12.260Z,39.90
2022-11-18T20:23:38.895Z,40.33
2022-11-18T20:26:06.153Z,40.03
2022-11-18T20:28:33.897Z,39.89
2022-11-18T20:31:00.532Z,40.21
2022-11-18T20:33:27.154Z,40.18
2022-11-18T20:35:53.758Z,40.20
2022-11-18T20:38:20.397Z,40.40
2022-11-18T20:40:47.014Z,40.12
2022-11-18T20:43:13.629Z,39.83
2022-11-18T20:45:40.603Z,39.69
2022-11-18T20:48:07.250Z,39.83
2022-11-18T20:50:36.402Z,40.18
2022-11-18T20:53:03.076Z,40.31
2022-11-18T20:55:29.691Z,39.78
2022-11-18T20:57:56.317Z,40.27
2022-11-18T21:00:22.948Z,40.31
2022-11-18T21:02:49.573Z,39.76
2022-11-18T21:05:16.178Z,39.81
2022-11-18T21:07:42.779Z,39.85
2022-11-18T21:10:09.384Z,39.77
2022-11-18T21:12:36.003Z,39.73
2022-11-18T21:15:02.613Z,40.26
2022-11-18T21:17:29.227Z,39.78
2022-11-18T21:19:55.848Z,39.63
2022-11-18T21:22:22.453Z,40.24
2022-11-18T21:24:49.063Z,39.80
2022-11-18T21:27:15.668Z,39.86
2022-11-18T21:29:42.261Z,40.01
2022-11-18T21:32:08.870Z,39.84
2022-11-18T21:34:35.491Z,39.88
2022-11-18T21:37:02.120Z,40.39
2022-11-18T21:39:28.740Z,40.07
2022-11-18T21:41:57.022Z,40.48
2022-11-18T21:44:24.284Z,40.29
2022-11-18T21:46:50.890Z,40.13
2022-11-18T21:49:17.974Z,40.10
2022-11-18T21:51:44.743Z,40.03
2022-11-18T21:54:11.365Z,40.37
2022-11-18T21:56:37.978Z,40.42
2022-11-18T21:59:04.593Z,40.61
2022-11-18T22:01:32.241Z,40.58
2022-11-18T22:04:00.185Z,40.43
2022-11-18T22:06:27.187Z,40.32
2022-11-18T22:08:53.802Z,40.21
2022-11-18T22:11:20.516Z,40.48
2022-11-18T22:13:47.183Z,40.63
2022-11-18T22:16:15.513Z,40.39
2022-11-18T22:18:49.274Z,40.79
2022-11-18T22:21:19.701Z,40.94
2022-11-18T22:23:46.357Z,40.38
2022-11-18T22:26:17.452Z,40.48
2022-11-18T22:28:44.451Z,40.61
2022-11-18T22:31:12.879Z,40.55
2022-11-18T22:33:39.527Z,40.95
2022-11-18T22:36:08.552Z,41.23
2022-11-18T22:38:35.178Z,40.91
2022-11-18T22:41:06.640Z,40.62
2022-11-18T22:43:33.756Z,41.00
2022-11-18T22:46:03.155Z,40.81
2022-11-18T22:48:29.751Z,40.83
2022-11-18T22:51:00.958Z,40.93
2022-11-18T22:53:28.196Z,41.00
2022-11-18T22:56:04.685Z,40.93
2022-11-18T22:58:31.286Z,40.73
2022-11-18T23:01:05.045Z,40.93
2022-11-18T23:03:31.731Z,40.75
2022-11-18T23:05:58.369Z,40.50
2022-11-18T23:08:25.380Z,40.79
2022-11-18T23:10:52.042Z,41.13
2022-11-18T23:13:18.712Z,40.50
2022-11-18T23:15:45.354Z,41.05
2022-11-18T23:18:12.310Z,40.70
2022-11-18T23:20:38.978Z,40.82
2022-11-18T23:23:05.598Z,40.85
2022-11-18T23:25:32.210Z,40.93
2022-11-18T23:27:58.830Z,40.99
2022-11-18T23:30:25.447Z,40.94
2022-11-18T23:32:53.017Z,40.88
2022-11-18T23:35:19.633Z,41.20
2022-11-18T23:37:46.247Z,40.85
2022-11-18T23:40:12.908Z,41.35
2022-11-18T23:42:39.509Z,40.92
2022-11-18T23:45:06.503Z,40.83
2022-11-18T23:47:33.096Z,41.25
2022-11-18T23:49:59.701Z,41.47
2022-11-18T23:52:26.292Z,41.08
2022-11-18T23:54:52.895Z,41.33
2022-11-18T23:57:19.512Z,41.45
2022-11-18T23:59:46.132Z,41.67
